sensor_id;sensor_type;location;lat;lon;timestamp;pressure;altitude;pressure_sealevel;temperature;humidity
64668;BME280;51077;42.716;23.344;2023-05-12T00:01:41;95623.41;;;11.53;53.37
64668;BME280;51077;42.716;23.344;2023-05-12T00:04:07;95626.16;;;11.53;53.21
64668;BME280;51077;42.716;23.344;2023-05-12T00:06:32;95623.19;;;11.51;53.40
64668;BME280;51077;42.716;23.344;2023-05-12T00:08:58;95632.69;;;11.50;53.11
64668;BME280;51077;42.716;23.344;2023-05-12T00:11:23;95635.72;;;11.47;53.27
64668;BME280;51077;42.716;23.344;2023-05-12T00:13:49;95630.94;;;11.47;53.17
64668;BME280;51077;42.716;23.344;2023-05-12T00:16:14;95622.72;;;11.47;53.22
64668;BME280;51077;42.716;23.344;2023-05-12T00:18:41;95624.47;;;11.45;53.20
64668;BME280;51077;42.716;23.344;2023-05-12T00:21:07;95616.72;;;11.43;53.14
64668;BME280;51077;42.716;23.344;2023-05-12T00:23:33;95641.25;;;11.41;53.03
64668;BME280;51077;42.716;23.344;2023-05-12T00:25:58;95629.78;;;11.37;53.12
64668;BME280;51077;42.716;23.344;2023-05-12T00:28:24;95631.28;;;11.32;53.17
64668;BME280;51077;42.716;23.344;2023-05-12T00:30:49;95622.81;;;11.30;53.35
64668;BME280;51077;42.716;23.344;2023-05-12T00:33:14;95631.56;;;11.29;53.30
64668;BME280;51077;42.716;23.344;2023-05-12T00:35:41;95622.31;;;11.26;53.49
64668;BME280;51077;42.716;23.344;2023-05-12T00:38:06;95636.56;;;11.25;53.48
64668;BME280;51077;42.716;23.344;2023-05-12T00:40:32;95630.81;;;11.23;53.55
64668;BME280;51077;42.716;23.344;2023-05-12T00:42:57;95628.84;;;11.23;53.57
64668;BME280;51077;42.716;23.344;2023-05-12T00:45:23;95638.31;;;11.22;53.72
64668;BME280;51077;42.716;23.344;2023-05-12T00:47:50;95640.09;;;11.20;53.69
64668;BME280;51077;42.716;23.344;2023-05-12T00:50:16;95642.59;;;11.18;53.71
64668;BME280;51077;42.716;23.344;2023-05-12T00:52:42;95633.59;;;11.17;53.87
64668;BME280;51077;42.716;23.344;2023-05-12T00:55:08;95639.84;;;11.18;53.84
64668;BME280;51077;42.716;23.344;2023-05-12T00:57:33;95643.34;;;11.18;54.34
64668;BME280;51077;42.716;23.344;2023-05-12T00:59:59;95635.38;;;11.15;54.32
64668;BME280;51077;42.716;23.344;2023-05-12T01:02:24;95637.13;;;11.12;54.64
64668;BME280;51077;42.716;23.344;2023-05-12T01:04:50;95645.63;;;11.08;54.76
64668;BME280;51077;42.716;23.344;2023-05-12T01:07:18;95649.38;;;11.05;55.19
64668;BME280;51077;42.716;23.344;2023-05-12T01:09:45;95643.44;;;11.01;55.46
64668;BME280;51077;42.716;23.344;2023-05-12T01:12:10;95652.66;;;10.98;55.58
64668;BME280;51077;42.716;23.344;2023-05-12T01:14:36;95645.94;;;10.94;55.89
64668;BME280;51077;42.716;23.344;2023-05-12T01:17:07;95647.69;;;10.91;56.25
64668;BME280;51077;42.716;23.344;2023-05-12T01:19:59;95648.69;;;10.88;56.39
64668;BME280;51077;42.716;23.344;2023-05-12T01:22:28;95661.97;;;10.84;56.62
64668;BME280;51077;42.716;23.344;2023-05-12T01:25:01;95656.22;;;10.82;56.54
64668;BME280;51077;42.716;23.344;2023-05-12T01:27:27;95657.22;;;10.79;56.94
64668;BME280;51077;42.716;23.344;2023-05-12T01:29:55;95658.25;;;10.76;57.20
64668;BME280;51077;42.716;23.344;2023-05-12T01:32:22;95653.47;;;10.71;57.39
64668;BME280;51077;42.716;23.344;2023-05-12T01:34:47;95662.75;;;10.68;57.60
64668;BME280;51077;42.716;23.344;2023-05-12T01:37:13;95659.75;;;10.66;57.81
64668;BME280;51077;42.716;23.344;2023-05-12T01:39:40;95649.78;;;10.63;57.94
64668;BME280;51077;42.716;23.344;2023-05-12T01:42:06;95650.78;;;10.60;58.19
64668;BME280;51077;42.716;23.344;2023-05-12T01:44:31;95647.28;;;10.59;58.16
64668;BME280;51077;42.716;23.344;2023-05-12T01:46:57;95649.53;;;10.55;58.36
64668;BME280;51077;42.716;23.344;2023-05-12T01:49:22;95652.03;;;10.53;58.51
64668;BME280;51077;42.716;23.344;2023-05-12T01:51:48;95658.03;;;10.51;58.61
64668;BME280;51077;42.716;23.344;2023-05-12T01:54:13;95654.28;;;10.49;58.88
64668;BME280;51077;42.716;23.344;2023-05-12T01:56:39;95666.28;;;10.46;58.85
64668;BME280;51077;42.716;23.344;2023-05-12T01:59:05;95655.78;;;10.44;59.18
64668;BME280;51077;42.716;23.344;2023-05-12T02:01:30;95653.81;;;10.45;59.04
64668;BME280;51077;42.716;23.344;2023-05-12T02:03:57;95650.81;;;10.43;59.27
64668;BME280;51077;42.716;23.344;2023-05-12T02:06:23;95653.31;;;10.41;59.50
64668;BME280;51077;42.716;23.344;2023-05-12T02:08:48;95658.28;;;10.42;59.52
64668;BME280;51077;42.716;23.344;2023-05-12T02:11:14;95657.56;;;10.42;59.56
64668;BME280;51077;42.716;23.344;2023-05-12T02:13:40;95658.28;;;10.42;59.74
64668;BME280;51077;42.716;23.344;2023-05-12T02:16:05;95662.28;;;10.41;59.83
64668;BME280;51077;42.716;23.344;2023-05-12T02:18:32;95653.31;;;10.41;59.90
64668;BME280;51077;42.716;23.344;2023-05-12T02:20:57;95648.31;;;10.39;60.09
64668;BME280;51077;42.716;23.344;2023-05-12T02:23:23;95650.56;;;10.35;59.92
64668;BME280;51077;42.716;23.344;2023-05-12T02:25:48;95651.06;;;10.34;59.91
64668;BME280;51077;42.716;23.344;2023-05-12T02:28:14;95652.81;;;10.31;60.29
64668;BME280;51077;42.716;23.344;2023-05-12T02:30:49;95644.34;;;10.29;60.30
64668;BME280;51077;42.716;23.344;2023-05-12T02:33:18;95650.34;;;10.27;60.30
64668;BME280;51077;42.716;23.344;2023-05-12T02:35:44;95665.06;;;10.24;60.50
64668;BME280;51077;42.716;23.344;2023-05-12T02:38:10;95651.34;;;10.24;60.50
64668;BME280;51077;42.716;23.344;2023-05-12T02:40:36;95657.03;;;10.21;60.79
64668;BME280;51077;42.716;23.344;2023-05-12T02:43:01;95645.84;;;10.19;60.92
64668;BME280;51077;42.716;23.344;2023-05-12T02:45:26;95657.78;;;10.16;60.96
64668;BME280;51077;42.716;23.344;2023-05-12T02:47:52;95649.31;;;10.14;60.95
64668;BME280;51077;42.716;23.344;2023-05-12T02:50:17;95648.56;;;10.13;60.95
64668;BME280;51077;42.716;23.344;2023-05-12T02:52:43;95647.06;;;10.12;61.10
64668;BME280;51077;42.716;23.344;2023-05-12T02:55:08;95649.06;;;10.12;61.28
64668;BME280;51077;42.716;23.344;2023-05-12T02:57:33;95641.81;;;10.08;61.41
64668;BME280;51077;42.716;23.344;2023-05-12T03:00:03;95640.34;;;10.07;61.55
64668;BME280;51077;42.716;23.344;2023-05-12T03:02:30;95639.84;;;10.03;61.59
64668;BME280;51077;42.716;23.344;2023-05-12T03:04:56;95650.56;;;10.01;61.82
64668;BME280;51077;42.716;23.344;2023-05-12T03:07:21;95647.84;;;10.01;61.59
64668;BME280;51077;42.716;23.344;2023-05-12T03:09:47;95655.78;;;9.99;61.75
64668;BME280;51077;42.716;23.344;2023-05-12T03:12:12;95653.78;;;10.00;61.87
64668;BME280;51077;42.716;23.344;2023-05-12T03:14:38;95655.03;;;9.99;62.15
64668;BME280;51077;42.716;23.344;2023-05-12T03:17:03;95653.56;;;9.98;62.12
64668;BME280;51077;42.716;23.344;2023-05-12T03:19:28;95645.06;;;9.96;62.21
64668;BME280;51077;42.716;23.344;2023-05-12T03:21:54;95651.06;;;9.94;62.34
64668;BME280;51077;42.716;23.344;2023-05-12T03:24:20;95658.03;;;9.95;62.47
64668;BME280;51077;42.716;23.344;2023-05-12T03:26:45;95649.81;;;9.95;62.50
64668;BME280;51077;42.716;23.344;2023-05-12T03:29:10;95652.53;;;9.95;62.52
64668;BME280;51077;42.716;23.344;2023-05-12T03:31:36;95654.78;;;9.97;62.41
64668;BME280;51077;42.716;23.344;2023-05-12T03:34:01;95650.56;;;9.96;62.57
64668;BME280;51077;42.716;23.344;2023-05-12T03:36:27;95662.78;;;9.95;62.43
64668;BME280;51077;42.716;23.344;2023-05-12T03:38:52;95662.53;;;9.93;62.61
64668;BME280;51077;42.716;23.344;2023-05-12T03:41:17;95668.75;;;9.93;62.60
64668;BME280;51077;42.716;23.344;2023-05-12T03:43:43;95669.50;;;9.94;62.76
64668;BME280;51077;42.716;23.344;2023-05-12T03:46:08;95667.25;;;9.92;62.81
64668;BME280;51077;42.716;23.344;2023-05-12T03:48:33;95674.25;;;9.93;62.86
64668;BME280;51077;42.716;23.344;2023-05-12T03:50:59;95666.03;;;9.93;62.79
64668;BME280;51077;42.716;23.344;2023-05-12T03:53:24;95671.75;;;9.95;63.00
64668;BME280;51077;42.716;23.344;2023-05-12T03:55:50;95655.28;;;9.95;62.83
64668;BME280;51077;42.716;23.344;2023-05-12T03:58:15;95667.50;;;9.94;63.05
64668;BME280;51077;42.716;23.344;2023-05-12T04:00:41;95673.22;;;9.96;62.85
64668;BME280;51077;42.716;23.344;2023-05-12T04:03:06;95673.22;;;9.96;62.80
64668;BME280;51077;42.716;23.344;2023-05-12T04:05:32;95670.00;;;9.98;62.97
64668;BME280;51077;42.716;23.344;2023-05-12T04:07:57;95684.47;;;9.98;63.17
64668;BME280;51077;42.716;23.344;2023-05-12T04:10:22;95681.22;;;10.00;63.06
64668;BME280;51077;42.716;23.344;2023-05-12T04:12:48;95684.69;;;10.00;63.02
64668;BME280;51077;42.716;23.344;2023-05-12T04:15:13;95689.19;;;10.03;62.94
64668;BME280;51077;42.716;23.344;2023-05-12T04:17:39;95692.94;;;10.06;62.93
64668;BME280;51077;42.716;23.344;2023-05-12T04:20:06;95687.97;;;10.10;62.87
64668;BME280;51077;42.716;23.344;2023-05-12T04:22:31;95686.94;;;10.13;62.77
64668;BME280;51077;42.716;23.344;2023-05-12T04:24:57;95689.97;;;10.15;62.89
64668;BME280;51077;42.716;23.344;2023-05-12T04:27:22;95694.94;;;10.17;62.68
64668;BME280;51077;42.716;23.344;2023-05-12T04:29:49;95691.69;;;10.18;62.57
64668;BME280;51077;42.716;23.344;2023-05-12T04:32:14;95684.47;;;10.21;62.53
64668;BME280;51077;42.716;23.344;2023-05-12T04:34:39;95667.03;;;10.24;62.61
64668;BME280;51077;42.716;23.344;2023-05-12T04:37:08;95679.50;;;10.25;62.58
64668;BME280;51077;42.716;23.344;2023-05-12T04:39:34;95681.00;;;10.26;62.53
64668;BME280;51077;42.716;23.344;2023-05-12T04:42:02;95684.25;;;10.30;62.61
64668;BME280;51077;42.716;23.344;2023-05-12T04:44:28;95681.00;;;10.31;62.61
64668;BME280;51077;42.716;23.344;2023-05-12T04:46:54;95690.97;;;10.35;62.50
64668;BME280;51077;42.716;23.344;2023-05-12T04:49:21;95676.78;;;10.36;62.54
64668;BME280;51077;42.716;23.344;2023-05-12T04:51:46;95693.47;;;10.38;62.49
64668;BME280;51077;42.716;23.344;2023-05-12T04:54:12;95689.97;;;10.38;62.45
64668;BME280;51077;42.716;23.344;2023-05-12T04:56:37;95688.50;;;10.37;62.62
64668;BME280;51077;42.716;23.344;2023-05-12T04:59:03;95688.50;;;10.37;62.33
64668;BME280;51077;42.716;23.344;2023-05-12T05:01:28;95687.75;;;10.36;62.44
64668;BME280;51077;42.716;23.344;2023-05-12T05:03:53;95692.22;;;10.39;62.41
64668;BME280;51077;42.716;23.344;2023-05-12T05:06:19;95697.69;;;10.39;62.40
64668;BME280;51077;42.716;23.344;2023-05-12T05:08:44;95689.47;;;10.39;62.44
64668;BME280;51077;42.716;23.344;2023-05-12T05:11:10;95687.00;;;10.41;62.35
64668;BME280;51077;42.716;23.344;2023-05-12T05:13:35;95679.00;;;10.43;62.14
64668;BME280;51077;42.716;23.344;2023-05-12T05:16:01;95689.00;;;10.41;62.01
64668;BME280;51077;42.716;23.344;2023-05-12T05:18:26;95684.50;;;10.38;62.02
64668;BME280;51077;42.716;23.344;2023-05-12T05:20:53;95694.47;;;10.41;62.04
64668;BME280;51077;42.716;23.344;2023-05-12T05:23:18;95692.47;;;10.41;61.89
64668;BME280;51077;42.716;23.344;2023-05-12T05:25:44;95696.97;;;10.39;61.86
64668;BME280;51077;42.716;23.344;2023-05-12T05:28:09;95703.47;;;10.41;61.86
64668;BME280;51077;42.716;23.344;2023-05-12T05:30:35;95698.19;;;10.43;61.83
64668;BME280;51077;42.716;23.344;2023-05-12T05:33:00;95703.69;;;10.43;61.64
64668;BME280;51077;42.716;23.344;2023-05-12T05:35:26;95705.94;;;10.39;61.73
64668;BME280;51077;42.716;23.344;2023-05-12T05:37:51;95701.94;;;10.40;61.55
64668;BME280;51077;42.716;23.344;2023-05-12T05:40:18;95698.44;;;10.40;61.72
64668;BME280;51077;42.716;23.344;2023-05-12T05:42:44;95706.19;;;10.41;61.56
64668;BME280;51077;42.716;23.344;2023-05-12T05:45:10;95707.19;;;10.44;61.64
64668;BME280;51077;42.716;23.344;2023-05-12T05:47:35;95706.69;;;10.45;61.66
64668;BME280;51077;42.716;23.344;2023-05-12T05:50:04;95709.69;;;10.47;61.73
64668;BME280;51077;42.716;23.344;2023-05-12T05:52:30;95714.66;;;10.49;61.63
64668;BME280;51077;42.716;23.344;2023-05-12T05:54:55;95717.16;;;10.52;61.46
64668;BME280;51077;42.716;23.344;2023-05-12T05:57:20;95710.41;;;10.53;61.57
64668;BME280;51077;42.716;23.344;2023-05-12T05:59:46;95711.69;;;10.58;61.54
64668;BME280;51077;42.716;23.344;2023-05-12T06:02:11;95713.41;;;10.61;61.21
64668;BME280;51077;42.716;23.344;2023-05-12T06:04:37;95708.41;;;10.65;61.33
64668;BME280;51077;42.716;23.344;2023-05-12T06:07:02;95707.91;;;10.67;61.30
64668;BME280;51077;42.716;23.344;2023-05-12T06:09:28;95717.41;;;10.71;61.20
64668;BME280;51077;42.716;23.344;2023-05-12T06:11:53;95711.41;;;10.73;61.17
64668;BME280;51077;42.716;23.344;2023-05-12T06:14:18;95715.91;;;10.76;60.99
64668;BME280;51077;42.716;23.344;2023-05-12T06:16:44;95723.38;;;10.81;60.92
64668;BME280;51077;42.716;23.344;2023-05-12T06:19:09;95722.63;;;10.80;60.80
64668;BME280;51077;42.716;23.344;2023-05-12T06:21:36;95719.38;;;10.82;60.60
64668;BME280;51077;42.716;23.344;2023-05-12T06:24:01;95717.13;;;10.86;60.63
64668;BME280;51077;42.716;23.344;2023-05-12T06:26:27;95730.34;;;10.88;60.65
64668;BME280;51077;42.716;23.344;2023-05-12T06:28:53;95723.09;;;10.90;60.62
64668;BME280;51077;42.716;23.344;2023-05-12T06:31:18;95729.81;;;10.95;61.32
64668;BME280;51077;42.716;23.344;2023-05-12T06:33:44;95740.56;;;10.98;61.58
64668;BME280;51077;42.716;23.344;2023-05-12T06:36:09;95738.56;;;10.99;60.86
64668;BME280;51077;42.716;23.344;2023-05-12T06:38:36;95734.06;;;11.01;60.89
64668;BME280;51077;42.716;23.344;2023-05-12T06:41:01;95724.56;;;11.02;60.62
64668;BME280;51077;42.716;23.344;2023-05-12T06:43:26;95737.78;;;11.04;60.52
64668;BME280;51077;42.716;23.344;2023-05-12T06:45:52;95731.78;;;11.05;60.45
64668;BME280;51077;42.716;23.344;2023-05-12T06:48:17;95734.28;;;11.09;60.47
64668;BME280;51077;42.716;23.344;2023-05-12T06:50:43;95729.53;;;11.15;60.92
64668;BME280;51077;42.716;23.344;2023-05-12T06:53:09;95727.28;;;11.19;60.78
64668;BME280;51077;42.716;23.344;2023-05-12T06:55:34;95735.22;;;11.23;60.83
64668;BME280;51077;42.716;23.344;2023-05-12T06:58:00;95744.47;;;11.25;60.40
64668;BME280;51077;42.716;23.344;2023-05-12T07:00:26;95741.97;;;11.27;59.94
64668;BME280;51077;42.716;23.344;2023-05-12T07:02:51;95738.22;;;11.30;59.76
64668;BME280;51077;42.716;23.344;2023-05-12T07:05:17;95724.97;;;11.35;59.79
64668;BME280;51077;42.716;23.344;2023-05-12T07:07:43;95727.19;;;11.36;59.58
64668;BME280;51077;42.716;23.344;2023-05-12T07:10:09;95739.94;;;11.39;59.38
64668;BME280;51077;42.716;23.344;2023-05-12T07:12:35;95734.16;;;11.43;59.17
64668;BME280;51077;42.716;23.344;2023-05-12T07:15:00;95741.91;;;11.44;59.14
64668;BME280;51077;42.716;23.344;2023-05-12T07:17:25;95733.16;;;11.46;58.90
64668;BME280;51077;42.716;23.344;2023-05-12T07:19:52;95737.91;;;11.45;58.63
64668;BME280;51077;42.716;23.344;2023-05-12T07:22:18;95738.63;;;11.51;58.60
64668;BME280;51077;42.716;23.344;2023-05-12T07:24:43;95729.38;;;11.54;58.68
64668;BME280;51077;42.716;23.344;2023-05-12T07:27:09;95739.13;;;11.55;58.51
64668;BME280;51077;42.716;23.344;2023-05-12T07:29:35;95742.34;;;11.60;58.21
64668;BME280;51077;42.716;23.344;2023-05-12T07:32:00;95739.84;;;11.62;58.16
64668;BME280;51077;42.716;23.344;2023-05-12T07:34:26;95733.31;;;11.65;58.01
64668;BME280;51077;42.716;23.344;2023-05-12T07:36:51;95741.31;;;11.68;58.25
64668;BME280;51077;42.716;23.344;2023-05-12T07:39:17;95767.03;;;11.76;58.12
64668;BME280;51077;42.716;23.344;2023-05-12T07:41:48;95746.75;;;11.79;57.86
64668;BME280;51077;42.716;23.344;2023-05-12T07:44:14;95761.75;;;11.84;57.61
64668;BME280;51077;42.716;23.344;2023-05-12T07:46:40;95731.97;;;11.88;57.20
64668;BME280;51077;42.716;23.344;2023-05-12T07:49:06;95745.19;;;11.95;57.01
64668;BME280;51077;42.716;23.344;2023-05-12T07:51:31;95761.16;;;12.02;57.07
64668;BME280;51077;42.716;23.344;2023-05-12T07:53:56;95755.63;;;12.08;56.87
64668;BME280;51077;42.716;23.344;2023-05-12T07:56:22;95756.84;;;12.13;56.72
64668;BME280;51077;42.716;23.344;2023-05-12T07:58:47;95757.78;;;12.21;56.62
64668;BME280;51077;42.716;23.344;2023-05-12T08:01:13;95746.19;;;12.33;56.47
64668;BME280;51077;42.716;23.344;2023-05-12T08:03:39;95737.84;;;12.45;55.87
64668;BME280;51077;42.716;23.344;2023-05-12T08:06:04;95739.22;;;12.63;55.67
64668;BME280;51077;42.716;23.344;2023-05-12T08:08:30;95732.56;;;12.77;55.36
64668;BME280;51077;42.716;23.344;2023-05-12T08:10:55;95737.69;;;12.92;55.09
64668;BME280;51077;42.716;23.344;2023-05-12T08:13:21;95751.75;;;13.13;54.71
64668;BME280;51077;42.716;23.344;2023-05-12T08:15:48;95747.06;;;13.32;53.97
64668;BME280;51077;42.716;23.344;2023-05-12T08:18:14;95763.94;;;13.47;53.42
64668;BME280;51077;42.716;23.344;2023-05-12T08:20:39;95739.97;;;13.61;53.00
64668;BME280;51077;42.716;23.344;2023-05-12T08:23:05;95743.53;;;13.75;52.67
64668;BME280;51077;42.716;23.344;2023-05-12T08:25:31;95742.13;;;13.87;52.22
64668;BME280;51077;42.716;23.344;2023-05-12T08:27:59;95740.72;;;13.99;51.93
64668;BME280;51077;42.716;23.344;2023-05-12T08:30:25;95748.63;;;14.08;51.44
64668;BME280;51077;42.716;23.344;2023-05-12T08:32:50;95740.69;;;14.18;51.29
64668;BME280;51077;42.716;23.344;2023-05-12T08:35:16;95758.88;;;14.27;50.82
64668;BME280;51077;42.716;23.344;2023-05-12T08:37:41;95744.25;;;14.32;50.13
64668;BME280;51077;42.716;23.344;2023-05-12T08:40:14;95747.25;;;14.34;49.91
64668;BME280;51077;42.716;23.344;2023-05-12T08:42:43;95750.66;;;14.40;49.95
64668;BME280;51077;42.716;23.344;2023-05-12T08:45:13;95739.59;;;14.40;49.40
64668;BME280;51077;42.716;23.344;2023-05-12T08:47:40;95742.06;;;14.44;49.38
64668;BME280;51077;42.716;23.344;2023-05-12T08:50:07;95745.28;;;14.48;49.54
64668;BME280;51077;42.716;23.344;2023-05-12T08:52:34;95730.16;;;14.54;49.04
64668;BME280;51077;42.716;23.344;2023-05-12T08:55:00;95737.78;;;14.62;49.07
64668;BME280;51077;42.716;23.344;2023-05-12T08:57:26;95732.72;;;14.66;48.84
64668;BME280;51077;42.716;23.344;2023-05-12T08:59:55;95738.66;;;14.70;48.87
64668;BME280;51077;42.716;23.344;2023-05-12T09:02:22;95748.13;;;14.74;48.68
64668;BME280;51077;42.716;23.344;2023-05-12T09:04:51;95734.84;;;14.73;48.32
64668;BME280;51077;42.716;23.344;2023-05-12T09:07:20;95725.28;;;14.74;48.36
64668;BME280;51077;42.716;23.344;2023-05-12T09:09:51;95758.44;;;14.74;48.23
64668;BME280;51077;42.716;23.344;2023-05-12T09:12:18;95726.25;;;14.76;47.90
64668;BME280;51077;42.716;23.344;2023-05-12T09:14:47;95723.28;;;14.74;47.47
64668;BME280;51077;42.716;23.344;2023-05-12T09:17:16;95727.84;;;14.72;47.52
64668;BME280;51077;42.716;23.344;2023-05-12T09:19:42;95723.56;;;14.71;47.48
64668;BME280;51077;42.716;23.344;2023-05-12T09:22:07;95718.28;;;14.73;47.12
64668;BME280;51077;42.716;23.344;2023-05-12T09:24:39;95725.53;;;14.76;47.07
64668;BME280;51077;42.716;23.344;2023-05-12T09:27:05;95729.53;;;14.75;46.95
64668;BME280;51077;42.716;23.344;2023-05-12T09:29:31;95714.97;;;14.74;47.22
64668;BME280;51077;42.716;23.344;2023-05-12T09:31:59;95715.41;;;14.78;47.38
64668;BME280;51077;42.716;23.344;2023-05-12T09:34:33;95719.16;;;14.81;47.25
64668;BME280;51077;42.716;23.344;2023-05-12T09:37:05;95720.53;;;14.88;47.45
64668;BME280;51077;42.716;23.344;2023-05-12T09:39:32;95712.47;;;14.90;47.29
64668;BME280;51077;42.716;23.344;2023-05-12T09:41:57;95709.47;;;14.88;47.00
64668;BME280;51077;42.716;23.344;2023-05-12T09:44:24;95715.97;;;14.90;46.93
64668;BME280;51077;42.716;23.344;2023-05-12T09:46:50;95708.19;;;14.89;46.63
64668;BME280;51077;42.716;23.344;2023-05-12T09:49:21;95723.09;;;14.86;46.47
64668;BME280;51077;42.716;23.344;2023-05-12T09:51:56;95720.31;;;14.86;46.48
64668;BME280;51077;42.716;23.344;2023-05-12T09:54:29;95716.59;;;14.83;46.38
64668;BME280;51077;42.716;23.344;2023-05-12T09:57:02;95708.53;;;14.85;46.43
64668;BME280;51077;42.716;23.344;2023-05-12T09:59:33;95712.78;;;14.86;46.50
64668;BME280;51077;42.716;23.344;2023-05-12T10:02:00;95708.19;;;14.89;46.47
64668;BME280;51077;42.716;23.344;2023-05-12T10:04:58;95700.34;;;14.93;46.64
64668;BME280;51077;42.716;23.344;2023-05-12T10:07:21;95702.28;;;14.98;46.46
64668;BME280;51077;42.716;23.344;2023-05-12T10:09:47;95704.19;;;15.03;46.25
64668;BME280;51077;42.716;23.344;2023-05-12T10:12:13;95697.06;;;15.07;46.14
64668;BME280;51077;42.716;23.344;2023-05-12T10:14:40;95699.16;;;15.15;45.51
64668;BME280;51077;42.716;23.344;2023-05-12T10:17:07;95692.81;;;15.20;45.39
64668;BME280;51077;42.716;23.344;2023-05-12T10:19:33;95678.63;;;15.23;45.33
64668;BME280;51077;42.716;23.344;2023-05-12T10:21:59;95685.75;;;15.32;45.10
64668;BME280;51077;42.716;23.344;2023-05-12T10:24:27;95691.06;;;15.43;45.02
64668;BME280;51077;42.716;23.344;2023-05-12T10:26:55;95685.09;;;15.52;44.71
64668;BME280;51077;42.716;23.344;2023-05-12T10:29:22;95691.38;;;15.66;44.31
64668;BME280;51077;42.716;23.344;2023-05-12T10:31:55;95682.31;;;15.79;43.98
64668;BME280;51077;42.716;23.344;2023-05-12T10:34:21;95678.44;;;15.95;43.54
64668;BME280;51077;42.716;23.344;2023-05-12T10:36:48;95684.47;;;16.07;43.34
64668;BME280;51077;42.716;23.344;2023-05-12T10:39:15;95681.31;;;16.24;42.98
64668;BME280;51077;42.716;23.344;2023-05-12T10:41:41;95677.03;;;16.44;42.57
64668;BME280;51077;42.716;23.344;2023-05-12T10:44:09;95663.03;;;16.70;41.93
64668;BME280;51077;42.716;23.344;2023-05-12T10:46:35;95678.34;;;16.92;41.14
64668;BME280;51077;42.716;23.344;2023-05-12T10:49:02;95691.03;;;17.08;40.68
64668;BME280;51077;42.716;23.344;2023-05-12T10:51:29;95667.84;;;17.27;40.78
64668;BME280;51077;42.716;23.344;2023-05-12T10:53:57;95684.75;;;17.44;40.00
64668;BME280;51077;42.716;23.344;2023-05-12T10:56:27;95670.00;;;17.57;39.94
64668;BME280;51077;42.716;23.344;2023-05-12T10:59:25;95663.78;;;17.72;39.30
64668;BME280;51077;42.716;23.344;2023-05-12T11:02:04;95680.13;;;17.83;38.90
64668;BME280;51077;42.716;23.344;2023-05-12T11:04:44;95673.50;;;18.01;38.37
64668;BME280;51077;42.716;23.344;2023-05-12T11:07:11;95670.06;;;18.31;37.95
64668;BME280;51077;42.716;23.344;2023-05-12T11:09:43;95669.31;;;18.54;37.53
64668;BME280;51077;42.716;23.344;2023-05-12T11:12:10;95665.28;;;18.86;36.70
64668;BME280;51077;42.716;23.344;2023-05-12T11:14:38;95688.44;;;19.03;36.61
64668;BME280;51077;42.716;23.344;2023-05-12T11:17:04;95683.94;;;19.23;36.22
64668;BME280;51077;42.716;23.344;2023-05-12T11:19:30;95669.28;;;19.30;35.79
64668;BME280;51077;42.716;23.344;2023-05-12T11:21:56;95685.59;;;19.34;35.25
64668;BME280;51077;42.716;23.344;2023-05-12T11:24:23;95673.91;;;19.28;34.47
64668;BME280;51077;42.716;23.344;2023-05-12T11:26:49;95690.28;;;19.08;34.74
64668;BME280;51077;42.716;23.344;2023-05-12T11:29:19;95697.88;;;19.00;34.84
64668;BME280;51077;42.716;23.344;2023-05-12T11:31:49;95678.44;;;18.85;34.45
64668;BME280;51077;42.716;23.344;2023-05-12T11:34:19;95687.72;;;18.72;34.72
64668;BME280;51077;42.716;23.344;2023-05-12T11:36:44;95682.50;;;18.61;34.80
64668;BME280;51077;42.716;23.344;2023-05-12T11:39:22;95678.03;;;18.43;35.10
64668;BME280;51077;42.716;23.344;2023-05-12T11:41:48;95694.69;;;18.35;35.04
64668;BME280;51077;42.716;23.344;2023-05-12T11:44:24;95680.06;;;18.27;35.34
64668;BME280;51077;42.716;23.344;2023-05-12T11:46:57;95686.13;;;18.10;35.89
64668;BME280;51077;42.716;23.344;2023-05-12T11:49:24;95685.38;;;18.02;35.69
64668;BME280;51077;42.716;23.344;2023-05-12T11:51:53;95686.47;;;17.91;35.47
64668;BME280;51077;42.716;23.344;2023-05-12T11:54:19;95681.03;;;17.78;35.88
64668;BME280;51077;42.716;23.344;2023-05-12T11:56:49;95667.28;;;17.65;36.25
64668;BME280;51077;42.716;23.344;2023-05-12T12:01:54;95683.66;;;17.47;36.17
64668;BME280;51077;42.716;23.344;2023-05-12T12:04:37;95682.50;;;17.35;36.39
64668;BME280;51077;42.716;23.344;2023-05-12T12:07:05;95680.63;;;17.30;36.84
64668;BME280;51077;42.716;23.344;2023-05-12T12:09:38;95678.19;;;17.26;36.85
64668;BME280;51077;42.716;23.344;2023-05-12T12:12:09;95680.03;;;17.24;36.77
64668;BME280;51077;42.716;23.344;2023-05-12T12:14:36;95684.81;;;17.16;36.93
64668;BME280;51077;42.716;23.344;2023-05-12T12:17:05;95676.84;;;17.12;36.77
64668;BME280;51077;42.716;23.344;2023-05-12T12:19:31;95676.44;;;17.08;36.91
64668;BME280;51077;42.716;23.344;2023-05-12T12:21:57;95685.09;;;17.04;37.20
64668;BME280;51077;42.716;23.344;2023-05-12T12:24:23;95686.38;;;17.03;37.83
64668;BME280;51077;42.716;23.344;2023-05-12T12:26:49;95688.94;;;17.01;38.13
64668;BME280;51077;42.716;23.344;2023-05-12T12:29:15;95690.06;;;16.98;38.39
64668;BME280;51077;42.716;23.344;2023-05-12T12:31:41;95680.44;;;16.99;38.68
64668;BME280;51077;42.716;23.344;2023-05-12T12:34:06;95711.50;;;16.98;38.55
64668;BME280;51077;42.716;23.344;2023-05-12T12:36:32;95681.53;;;16.96;38.68
64668;BME280;51077;42.716;23.344;2023-05-12T12:38:58;95682.47;;;16.99;38.71
64668;BME280;51077;42.716;23.344;2023-05-12T12:41:23;95679.72;;;16.99;39.07
64668;BME280;51077;42.716;23.344;2023-05-12T12:43:50;95690.97;;;17.01;38.95
64668;BME280;51077;42.716;23.344;2023-05-12T12:46:15;95679.16;;;17.00;38.96
64668;BME280;51077;42.716;23.344;2023-05-12T12:48:41;95692.28;;;17.00;39.14
64668;BME280;51077;42.716;23.344;2023-05-12T12:51:06;95679.50;;;16.97;39.15